Time;durP1;ratioP1;P1;durP2;ratioP2;P2;SDS_P1;SDS_P2;PMS_P1;PMS_P2;Temp;Humidity;BMP_temperature;BMP_pressure;BME280_temperature;BME280_humidity;BME280_pressure;Samples;Min_cycle;Max_cycle;Signal;HPM_P1;HPM_P2
2021/08/26 00:09:17;;;;;;;5.45;4.90;;;;;;;14.98;82.67;99506.06;10471527;28;20443;-84
2021/08/26 00:14:24;;;;;;;7.00;5.82;;;;;;;15.03;84.41;99497.84;10455485;28;20056;-84
2021/08/26 00:19:33;;;;;;;7.20;6.47;;;;;;;15.01;85.77;99494.47;10442709;22;20481;-69
2021/08/26 00:24:37;;;;;;;7.18;6.47;;;;;;;14.98;86.53;99487.53;10456966;28;20043;-69
2021/08/26 00:29:39;;;;;;;7.20;6.60;;;;;;;15.13;85.64;99477.84;10456536;28;20053;-69
2021/08/26 00:34:40;;;;;;;7.47;6.15;;;;;;;14.98;86.27;99468.16;10438356;28;20045;-70
2021/08/26 00:39:42;;;;;;;6.90;6.30;;;;;;;14.99;87.00;99464.56;10439209;28;20045;-69
2021/08/26 00:44:44;;;;;;;7.32;6.82;;;;;;;14.96;87.21;99451.50;10437869;28;20483;-70
2021/08/26 00:49:50;;;;;;;8.25;7.55;;;;;;;14.73;88.94;99444.91;10455686;28;20163;-69
2021/08/26 00:54:52;;;;;;;8.68;8.07;;;;;;;14.78;88.76;99442.84;10439643;28;20044;-69
2021/08/26 00:59:55;;;;;;;8.35;7.75;;;;;;;14.84;87.87;99434.56;10455496;28;20391;-70
2021/08/26 01:05:06;;;;;;;9.07;8.35;;;;;;;14.86;88.02;99433.53;10456347;28;20401;-70
2021/08/26 01:10:12;;;;;;;10.57;9.50;;;;;;;14.73;89.07;99429.06;10457112;28;20185;-69
2021/08/26 01:15:14;;;;;;;10.00;9.30;;;;;;;14.62;90.36;99419.09;10458862;28;20087;-69
2021/08/26 01:20:16;;;;;;;10.30;9.55;;;;;;;14.50;91.01;99409.22;10456881;28;20044;-70
2021/08/26 01:25:23;;;;;;;8.85;8.25;;;;;;;14.53;91.17;99420.50;10456497;28;20530;-69
2021/08/26 01:30:25;;;;;;;;;;;;;;;14.60;90.78;99424.47;10447928;28;20049;-69
2021/08/26 01:35:28;;;;;;;8.02;7.53;;;;;;;14.51;92.70;99419.72;10466491;28;20378;-69
2021/08/26 01:40:40;;;;;;;8.15;7.55;;;;;;;14.46;92.42;99410.31;10465188;28;20468;-69
2021/08/26 01:45:48;;;;;;;7.82;7.35;;;;;;;14.45;92.60;99405.97;10464465;28;20103;-69
2021/08/26 01:50:50;;;;;;;6.43;6.03;;;;;;;14.49;92.40;99404.88;10463610;28;20063;-69
2021/08/26 01:55:53;;;;;;;5.65;5.35;;;;;;;14.56;91.35;99395.63;10445361;28;20422;-69
2021/08/26 02:00:55;;;;;;;6.40;5.85;;;;;;;14.49;92.31;99395.16;10462360;28;20045;-69
2021/08/26 02:05:57;;;;;;;5.72;5.32;;;;;;;14.56;91.87;99388.56;10462773;28;20051;-70
2021/08/26 02:10:58;;;;;;;4.43;4.13;;;;;;;14.54;91.45;99379.03;10462622;28;20414;-69
2021/08/26 02:16:00;;;;;;;4.30;4.10;;;;;;;14.51;91.54;99377.41;10462786;28;20033;-69
2021/08/26 02:21:02;;;;;;;3.67;3.47;;;;;;;14.49;90.74;99368.72;10463516;28;20064;-69
2021/08/26 02:26:03;;;;;;;4.07;3.78;;;;;;;14.47;90.36;99361.75;10462157;28;20041;-69
2021/08/26 02:31:05;;;;;;;4.00;3.80;;;;;;;14.31;91.61;99346.81;10462059;28;20453;-70
2021/08/26 02:36:06;;;;;;;3.22;3.03;;;;;;;14.41;90.54;99346.28;10461141;28;20475;-70
2021/08/26 02:41:09;;;;;;;3.25;3.05;;;;;;;14.47;90.45;99352.03;10461200;28;20174;-70
2021/08/26 02:46:11;;;;;;;3.63;3.42;;;;;;;14.54;90.42;99350.78;10461457;28;20041;-70
2021/08/26 02:51:13;;;;;;;4.60;4.30;;;;;;;14.38;91.84;99386.94;10443458;28;20067;-69
2021/08/26 02:56:15;;;;;;;2.67;2.38;;;;;;;14.12;90.29;99391.97;10461450;28;20103;-69
2021/08/26 03:01:16;;;;;;;4.68;1.98;;;;;;;13.62;91.55;99377.09;10459797;28;20049;-69
2021/08/26 03:06:18;;;;;;;3.13;1.83;;;;;;;13.52;91.54;99383.84;10459606;28;20048;-69
2021/08/26 03:11:20;;;;;;;3.67;2.28;;;;;;;13.42;92.34;99384.44;10458994;28;20048;-69
2021/08/26 03:16:21;;;;;;;3.05;1.90;;;;;;;13.40;92.37;99383.63;10459098;28;20049;-68
2021/08/26 03:21:23;;;;;;;4.82;2.10;;;;;;;13.36;93.51;99370.59;10458262;28;20542;-68
2021/08/26 03:26:24;;;;;;;3.92;2.40;;;;;;;13.18;94.18;99368.91;10458146;28;20045;-69
2021/08/26 03:31:26;;;;;;;5.18;2.22;;;;;;;13.29;93.34;99363.97;10457980;28;20049;-69
2021/08/26 03:36:27;;;;;;;2.70;1.92;;;;;;;13.33;93.54;99362.84;10457824;28;20041;-69
2021/08/26 03:41:29;;;;;;;6.18;3.08;;;;;;;13.20;94.52;99374.97;10457879;28;20452;-69
2021/08/26 03:46:31;;;;;;;4.70;2.33;;;;;;;13.18;94.55;99361.00;10457387;28;20045;-69
2021/08/26 03:51:32;;;;;;;5.20;2.55;;;;;;;13.44;93.62;99362.25;10456809;28;20421;-68
2021/08/26 03:56:34;;;;;;;4.72;2.33;;;;;;;13.59;92.36;99350.00;10457288;28;20049;-69
2021/08/26 04:01:38;;;;;;;3.03;1.63;;;;;;;13.61;90.94;99343.72;10439653;28;20045;-69
2021/08/26 04:06:40;;;;;;;3.33;1.52;;;;;;;13.59;91.05;99355.28;10457446;28;20056;-69
2021/08/26 04:11:41;;;;;;;3.33;2.13;;;;;;;13.63;91.26;99355.06;10456761;28;20106;-69
2021/08/26 04:16:43;;;;;;;4.75;2.47;;;;;;;13.77;91.19;99343.72;10456343;28;20033;-69
2021/08/26 04:21:44;;;;;;;3.28;2.65;;;;;;;13.73;90.71;99344.84;10456219;28;20099;-69
2021/08/26 04:26:46;;;;;;;4.45;2.28;;;;;;;13.82;89.15;99333.75;10438117;28;20074;-69
2021/08/26 04:31:47;;;;;;;2.58;2.22;;;;;;;13.61;91.19;99329.66;10456714;28;20045;-69
2021/08/26 04:36:49;;;;;;;4.03;2.42;;;;;;;13.79;88.83;99327.78;10455799;28;20483;-68
2021/08/26 04:41:51;;;;;;;5.28;2.20;;;;;;;13.68;88.52;99320.47;10455690;28;20119;-68
2021/08/26 04:46:52;;;;;;;3.97;2.10;;;;;;;13.70;87.50;99320.38;10456146;28;20355;-68
2021/08/26 04:51:54;;;;;;;5.78;2.22;;;;;;;13.56;88.16;99319.34;10455474;28;20049;-68
2021/08/26 04:56:55;;;;;;;4.45;2.60;;;;;;;13.58;88.90;99317.47;10455492;28;20045;-70
2021/08/26 05:01:57;;;;;;;5.95;2.85;;;;;;;13.57;89.23;99315.78;10455763;28;20051;-69
2021/08/26 05:06:59;;;;;;;5.95;2.67;;;;;;;13.53;89.58;99322.16;10437798;28;20101;-69
2021/08/26 05:12:03;;;;;;;5.40;2.75;;;;;;;13.63;88.14;99315.44;10455898;28;20106;-71
2021/08/26 05:17:05;;;;;;;4.68;2.90;;;;;;;13.68;88.55;99323.13;10437822;28;20077;-69
2021/08/26 05:22:06;;;;;;;6.82;2.70;;;;;;;13.60;89.04;99326.19;10473230;22;20041;-76
2021/08/26 05:27:08;;;;;;;4.13;2.70;;;;;;;13.58;89.04;99322.75;10442001;28;20467;-76
2021/08/26 05:32:10;;;;;;;4.00;2.97;;;;;;;13.62;88.54;99328.72;10458984;28;20045;-76
2021/08/26 05:37:12;;;;;;;5.07;2.70;;;;;;;13.81;86.55;99334.69;10459757;28;20045;-77
2021/08/26 05:42:13;;;;;;;4.80;2.97;;;;;;;13.80;86.79;99340.03;10460745;28;20045;-76
2021/08/26 05:47:16;;;;;;;5.32;2.83;;;;;;;13.68;87.44;99338.09;10460049;28;20040;-75
2021/08/26 05:52:17;;;;;;;9.50;3.80;;;;;;;13.67;87.58;99328.47;10461270;28;20386;-75
2021/08/26 05:57:19;;;;;;;8.70;4.00;;;;;;;13.67;87.62;99331.09;10442932;28;20456;-76
2021/08/26 06:02:20;;;;;;;8.65;3.28;;;;;;;13.74;86.79;99328.03;10443090;28;20048;-76
2021/08/26 06:07:22;;;;;;;9.38;3.70;;;;;;;13.88;86.47;99329.91;10467280;28;20483;-76
2021/08/26 06:12:24;;;;;;;6.90;3.40;;;;;;;14.09;85.14;99333.97;10446089;28;20088;-79
2021/08/26 06:17:26;;;;;;;8.85;3.50;;;;;;;14.16;84.83;99330.97;10470099;28;20041;-77
2021/08/26 06:22:27;;;;;;;7.47;3.50;;;;;;;14.11;84.49;99332.09;10451776;28;20502;-77
2021/08/26 06:27:29;;;;;;;10.02;4.28;;;;;;;14.09;85.02;99341.06;10468767;28;20045;-77
2021/08/26 06:32:31;;;;;;;14.45;4.35;;;;;;;13.94;85.99;99332.19;10449917;28;20072;-74
2021/08/26 06:37:33;;;;;;;9.63;5.03;;;;;;;14.09;85.70;99335.78;10449876;28;20044;-74
2021/08/26 06:42:34;;;;;;;8.55;4.68;;;;;;;14.21;84.08;99342.13;10467682;28;20106;-74
2021/08/26 06:47:36;;;;;;;12.48;5.07;;;;;;;14.07;85.38;99335.84;10448581;28;20075;-74
2021/08/26 06:52:38;;;;;;;7.35;3.70;;;;;;;14.24;86.02;99340.16;10448241;28;20048;-75
2021/08/26 06:57:40;;;;;;;12.73;5.00;;;;;;;14.63;83.16;99344.09;10447050;28;20056;-75
2021/08/26 07:02:41;;;;;;;7.25;4.57;;;;;;;14.55;84.76;99327.81;10464574;28;20392;-74
2021/08/26 07:07:43;;;;;;;11.68;5.10;;;;;;;14.29;85.50;99337.25;10464276;28;20445;-76
2021/08/26 07:12:45;;;;;;;13.13;5.55;;;;;;;14.32;85.77;99334.44;10447675;28;20057;-76
2021/08/26 07:17:48;;;;;;;13.00;5.60;;;;;;;14.61;84.63;99338.06;10463900;28;20114;-75
2021/08/26 07:22:50;;;;;;;11.38;5.65;;;;;;;14.81;81.48;99337.69;10462669;28;20044;-76
2021/08/26 07:27:52;;;;;;;10.38;4.65;;;;;;;14.54;83.60;99329.63;10462745;28;20045;-76
2021/08/26 07:32:54;;;;;;;9.13;3.95;;;;;;;14.83;83.47;99334.94;10463911;28;20040;-76
2021/08/26 07:37:56;;;;;;;10.57;5.13;;;;;;;14.69;85.57;99333.13;10463184;28;20071;-75
2021/08/26 07:42:57;;;;;;;7.38;4.25;;;;;;;14.52;87.64;99338.56;10444497;28;20049;-74
2021/08/26 07:47:59;;;;;;;5.93;3.70;;;;;;;14.22;88.99;99339.41;10460842;28;20087;-74
2021/08/26 07:53:00;;;;;;;7.65;5.28;;;;;;;14.08;89.45;99345.50;10447385;28;20057;-74
2021/08/26 07:58:03;;;;;;;7.25;5.13;;;;;;;14.37;89.62;99335.00;10450382;28;20501;-74
2021/08/26 08:03:05;;;;;;;7.70;4.95;;;;;;;14.58;88.48;99336.44;10460269;28;20486;-74
2021/08/26 08:08:07;;;;;;;7.68;5.00;;;;;;;15.09;86.20;99320.13;10434538;28;20045;-74
2021/08/26 08:13:09;;;;;;;7.10;4.93;;;;;;;15.14;85.91;99310.97;10402291;28;20506;-73
2021/08/26 08:18:12;;;;;;;6.60;4.38;;;;;;;15.63;84.57;99321.13;10419591;28;20045;-74
2021/08/26 08:23:14;;;;;;;6.57;3.45;;;;;;;15.73;79.13;99323.22;10418589;28;20132;-74
2021/08/26 08:28:17;;;;;;;7.88;4.78;;;;;;;15.46;82.55;99329.31;10453037;28;20040;-74
2021/08/26 08:33:19;;;;;;;7.00;4.72;;;;;;;15.29;84.31;99322.41;10461883;28;20048;-74
2021/08/26 08:38:20;;;;;;;7.25;5.38;;;;;;;15.34;81.54;99322.13;10442782;28;20513;-75
2021/08/26 08:43:22;;;;;;;6.05;4.63;;;;;;;15.74;83.34;99338.16;10460870;28;20052;-75
2021/08/26 08:48:27;;;;;;;9.02;4.95;;;;;;;15.51;79.29;99340.44;10460908;28;20093;-75
2021/08/26 08:53:29;;;;;;;7.45;4.55;;;;;;;15.44;77.80;99343.56;10442067;28;20052;-75
2021/08/26 08:58:36;;;;;;;7.20;3.88;;;;;;;15.34;77.85;99352.09;10439810;28;20052;-74
2021/08/26 09:03:38;;;;;;;8.02;4.13;;;;;;;15.31;78.50;99357.56;10418253;28;20043;-75
2021/08/26 09:08:40;;;;;;;13.00;4.60;;;;;;;15.25;78.56;99360.59;10417914;28;20045;-75
2021/08/26 09:13:43;;;;;;;11.07;4.22;;;;;;;15.39;77.50;99357.94;10417053;28;20076;-74
2021/08/26 09:18:45;;;;;;;10.45;4.57;;;;;;;15.33;79.00;99353.03;10417984;28;20545;-74
2021/08/26 09:24:00;;;;;;;6.65;3.63;;;;;;;15.66;74.59;99345.75;10418100;28;20410;-75
2021/08/26 09:29:04;;;;;;;7.95;3.78;;;;;;;15.35;74.80;99342.34;10455553;28;20049;-75
2021/08/26 09:34:12;;;;;;;5.38;3.40;;;;;;;15.08;75.63;99352.84;10441021;28;20049;-76
2021/08/26 09:39:17;;;;;;;10.18;3.72;;;;;;;15.41;75.86;99341.97;10458485;28;20049;-75
2021/08/26 09:44:19;;;;;;;7.57;3.25;;;;;;;15.78;71.86;99339.69;10459249;28;20486;-74
2021/08/26 09:49:23;;;;;;;7.57;2.55;;;;;;;16.01;73.45;99338.19;10463346;28;20045;-76
2021/08/26 09:54:28;;;;;;;5.93;3.22;;;;;;;16.56;71.97;99331.88;10449649;28;20048;-74
2021/08/26 09:59:48;;;;;;;6.03;2.92;;;;;;;16.73;70.08;99333.41;10464423;28;20032;-73
2021/08/26 10:04:49;;;;;;;7.18;3.05;;;;;;;16.75;66.96;99320.91;10425010;28;20049;-74
2021/08/26 10:09:52;;;;;;;8.27;3.20;;;;;;;17.27;68.63;99311.97;10442132;28;20049;-74
2021/08/26 10:14:54;;;;;;;7.20;2.92;;;;;;;17.54;62.24;99307.31;10466157;28;20048;-74
2021/08/26 10:19:56;;;;;;;4.88;2.92;;;;;;;18.32;63.28;99309.56;10448040;28;20080;-74
2021/08/26 10:24:59;;;;;;;6.50;2.55;;;;;;;18.63;60.91;99307.22;10393727;28;20049;-74
2021/08/26 10:30:01;;;;;;;5.05;2.25;;;;;;;18.40;61.41;99301.84;10466480;28;20099;-74
2021/08/26 10:35:09;;;;;;;6.40;2.70;;;;;;;17.60;65.13;99321.97;10464386;28;20075;-74
2021/08/26 10:40:28;;;;;;;7.38;3.05;;;;;;;16.79;70.02;99323.22;10423791;28;20048;-75
2021/08/26 10:45:50;;;;;;;6.43;3.50;;;;;;;16.10;76.40;99325.16;10453664;28;20079;-74
2021/08/26 10:51:15;;;;;;;8.65;4.70;;;;;;;15.69;78.65;99317.28;10433205;28;20114;-74
2021/08/26 10:56:21;;;;;;;8.90;5.03;;;;;;;15.06;81.25;99321.19;10422400;28;20113;-74
2021/08/26 11:01:35;;;;;;;8.05;5.40;;;;;;;15.53;78.78;99320.00;10419167;28;20111;-74
2021/08/26 11:06:38;;;;;;;11.48;5.80;;;;;;;15.86;82.58;99309.09;10444120;28;20060;-75
2021/08/26 11:11:47;;;;;;;7.30;3.95;;;;;;;15.86;80.14;99309.09;10463411;28;20091;-74
2021/08/26 11:16:56;;;;;;;8.82;4.43;;;;;;;15.89;80.88;99316.84;10462863;28;20084;-76
2021/08/26 11:22:00;;;;;;;5.32;3.90;;;;;;;16.34;77.89;99305.94;10474288;22;20044;-71
2021/08/26 11:27:23;;;;;;;4.65;2.90;;;;;;;17.28;75.36;99298.56;10445789;28;20375;-71
2021/08/26 11:32:25;;;;;;;4.93;2.63;;;;;;;17.49;68.75;99304.16;10463099;28;20494;-71
2021/08/26 11:37:34;;;;;;;11.93;2.67;;;;;;;18.26;68.41;99304.72;10445985;28;20059;-73
2021/08/26 11:42:44;;;;;;;4.13;1.83;;;;;;;18.08;64.15;99298.94;10445962;28;20051;-72
2021/08/26 11:48:02;;;;;;;3.90;1.85;;;;;;;17.75;62.79;99296.13;10463067;28;20087;-72
2021/08/26 11:53:07;;;;;;;5.28;2.17;;;;;;;17.34;66.69;99303.44;10462554;28;20467;-73
2021/08/26 11:58:11;;;;;;;4.47;2.28;;;;;;;16.86;68.93;99308.56;10444562;28;20445;-73
2021/08/26 12:03:14;;;;;;;5.20;2.60;;;;;;;16.24;71.76;99312.81;10444232;28;20498;-75
2021/08/26 12:08:16;;;;;;;6.70;3.20;;;;;;;16.61;74.11;99324.47;10444822;28;20051;-73
2021/08/26 12:13:20;;;;;;;3.17;1.60;;;;;;;16.92;67.74;99317.94;10461398;28;20052;-73
2021/08/26 12:18:30;;;;;;;5.45;2.40;;;;;;;16.94;66.66;99316.00;10443844;28;20049;-72
2021/08/26 12:23:36;;;;;;;4.05;1.83;;;;;;;16.89;67.78;99315.47;10443813;28;20040;-72
2021/08/26 12:28:46;;;;;;;3.67;1.50;;;;;;;16.22;71.48;99333.28;10460579;28;20095;-72
2021/08/26 12:34:09;;;;;;;6.47;1.63;;;;;;;15.77;72.96;99317.63;10459440;28;20041;-71
2021/08/26 12:39:27;;;;;;;3.47;1.10;;;;;;;15.38;73.70;99315.69;10442774;28;20468;-71
2021/08/26 12:44:29;;;;;;;1.63;0.70;;;;;;;15.42;72.21;99308.41;10459760;28;20072;-71
2021/08/26 12:49:45;;;;;;;2.35;0.77;;;;;;;15.54;70.78;99299.69;10459330;28;20406;-71
2021/08/26 12:54:59;;;;;;;1.10;0.50;;;;;;;15.79;66.93;99301.63;10460454;28;20045;-71
2021/08/26 13:00:01;;;;;;;4.43;0.70;;;;;;;15.71;68.86;99303.91;10460601;28;20045;-73
2021/08/26 13:05:07;;;;;;;1.30;0.50;;;;;;;15.76;66.98;99315.06;10460967;28;20076;-72
2021/08/26 13:10:13;;;;;;;2.33;0.50;;;;;;;15.68;69.72;99307.63;10462311;28;20060;-73
2021/08/26 13:15:15;;;;;;;1.20;0.60;;;;;;;16.40;64.58;99314.34;10441025;28;20379;-72
2021/08/26 13:20:18;;;;;;;2.25;0.70;;;;;;;17.05;61.88;99299.34;10457422;28;20386;-73
2021/08/26 13:25:20;;;;;;;1.25;0.70;;;;;;;17.00;61.58;99294.34;10453725;28;20181;-73
2021/08/26 13:30:22;;;;;;;1.10;0.70;;;;;;;17.03;63.50;99285.31;10470137;28;20083;-73
2021/08/26 13:35:25;;;;;;;1.48;0.80;;;;;;;17.75;63.72;99293.47;10464330;28;20051;-73
2021/08/26 13:40:26;;;;;;;3.13;1.05;;;;;;;17.49;62.24;99290.88;10464017;28;20048;-73
2021/08/26 13:45:28;;;;;;;2.55;0.88;;;;;;;16.82;63.67;99316.84;10445377;28;20041;-73
2021/08/26 13:50:30;;;;;;;1.27;0.45;;;;;;;16.14;64.02;99324.03;10446597;28;20041;-73
2021/08/26 13:55:33;;;;;;;1.60;0.77;;;;;;;15.83;63.73;99326.97;10463062;28;20072;-73
2021/08/26 14:00:34;;;;;;;1.02;0.50;;;;;;;15.55;66.12;99326.06;10445909;28;20099;-72
2021/08/26 14:05:37;;;;;;;0.82;0.47;;;;;;;15.46;65.89;99350.50;10445338;28;20049;-73
2021/08/26 14:10:38;;;;;;;1.30;0.60;;;;;;;15.75;63.04;99351.31;10445991;28;20055;-72
2021/08/26 14:15:40;;;;;;;1.83;0.88;;;;;;;15.29;68.62;99351.53;10450930;28;20576;-73
2021/08/26 14:20:42;;;;;;;1.77;0.80;;;;;;;14.82;74.98;99365.00;10424617;28;20490;-72
2021/08/26 14:25:43;;;;;;;1.45;0.77;;;;;;;14.44;79.75;99372.53;10441684;28;20044;-72
2021/08/26 14:30:45;;;;;;;2.92;0.85;;;;;;;14.10;79.75;99361.25;10454565;28;20053;-71
2021/08/26 14:35:47;;;;;;;1.35;1.05;;;;;;;14.17;80.45;99373.19;10448210;28;20132;-71
2021/08/26 14:40:49;;;;;;;2.63;1.00;;;;;;;14.25;80.36;99380.66;10462234;28;20435;-71
2021/08/26 14:45:50;;;;;;;1.92;0.77;;;;;;;14.46;76.92;99371.50;10461483;28;20090;-72
2021/08/26 14:50:52;;;;;;;1.58;0.88;;;;;;;14.55;78.61;99375.44;10423473;28;20053;-72
2021/08/26 14:55:53;;;;;;;1.25;0.70;;;;;;;14.82;74.05;99375.59;10461332;28;20536;-72
2021/08/26 15:00:55;;;;;;;1.80;0.68;;;;;;;15.00;71.07;99381.56;10460446;28;20494;-72
2021/08/26 15:05:57;;;;;;;1.98;0.60;;;;;;;14.74;70.92;99393.72;10460480;28;20095;-73
2021/08/26 15:10:59;;;;;;;0.90;0.50;;;;;;;14.62;72.93;99404.09;10459905;28;20057;-72
2021/08/26 15:16:01;;;;;;;0.65;0.60;;;;;;;14.50;75.31;99403.94;10459795;28;20075;-72
2021/08/26 15:21:04;;;;;;;2.58;0.77;;;;;;;14.61;72.61;99404.19;10460125;28;20044;-72
2021/08/26 15:26:06;;;;;;;2.10;0.80;;;;;;;14.45;75.42;99404.19;10441589;28;20098;-73
2021/08/26 15:31:07;;;;;;;1.25;0.50;;;;;;;14.48;74.71;99413.75;10458773;28;20107;-72
2021/08/26 15:36:09;;;;;;;2.45;0.70;;;;;;;14.54;73.62;99408.13;10458859;28;20088;-72
2021/08/26 15:41:12;;;;;;;3.22;0.77;;;;;;;14.44;74.38;99407.75;10441395;28;20049;-73
2021/08/26 15:46:19;;;;;;;2.83;1.10;;;;;;;14.62;73.32;99406.72;10457253;28;20137;-73
2021/08/26 15:51:25;;;;;;;0.88;0.60;;;;;;;14.33;74.47;99407.50;10458310;28;20060;-73
2021/08/26 15:56:32;;;;;;;2.55;0.77;;;;;;;14.32;75.55;99414.59;10458237;28;20072;-73
2021/08/26 16:01:36;;;;;;;;;;;;;;;14.45;75.00;99417.41;10458644;28;20095;-74
2021/08/26 16:06:38;;;;;;;0.88;0.47;;;;;;;14.62;72.67;99419.09;10458365;28;19924;-73
2021/08/26 16:11:39;;;;;;;2.90;0.60;;;;;;;14.35;74.29;99414.44;10457246;28;20045;-73
2021/08/26 16:16:42;;;;;;;1.05;0.50;;;;;;;14.40;72.84;99419.47;10439270;28;20056;-73
2021/08/26 16:21:44;;;;;;;2.08;0.50;;;;;;;14.43;72.45;99411.31;10457005;28;20044;-74
2021/08/26 16:26:45;;;;;;;2.03;0.70;;;;;;;14.35;73.92;99413.59;10440119;28;20106;-74
2021/08/26 16:31:47;;;;;;;1.52;0.88;;;;;;;14.29;74.24;99414.75;10457660;28;20143;-73
2021/08/26 16:36:49;;;;;;;1.98;0.50;;;;;;;14.19;72.11;99413.59;10456539;28;20170;-73
2021/08/26 16:41:50;;;;;;;1.45;0.52;;;;;;;14.01;72.65;99410.19;10438512;28;20114;-73
2021/08/26 16:46:52;;;;;;;1.77;0.30;;;;;;;14.04;73.77;99406.53;10456596;28;20040;-74
2021/08/26 16:51:54;;;;;;;1.13;0.55;;;;;;;14.08;73.66;99406.28;10457099;28;20094;-73
2021/08/26 16:56:55;;;;;;;1.85;0.60;;;;;;;14.01;73.66;99412.84;10456174;28;20052;-73
2021/08/26 17:01:57;;;;;;;1.98;0.63;;;;;;;14.05;73.87;99411.72;10456099;28;20238;-73
2021/08/26 17:06:59;;;;;;;2.65;0.90;;;;;;;14.19;72.85;99400.38;10456482;28;20045;-73
2021/08/26 17:12:00;;;;;;;4.00;0.88;;;;;;;14.06;73.99;99416.06;10455594;28;20045;-72
2021/08/26 17:17:02;;;;;;;0.88;0.52;;;;;;;13.96;74.74;99414.03;10456410;28;20048;-73
2021/08/26 17:22:04;;;;;;;1.92;1.17;;;;;;;13.93;75.39;99415.03;10473416;22;20094;-75
2021/08/26 17:27:05;;;;;;;2.45;0.73;;;;;;;14.00;74.79;99419.06;10460637;28;20041;-75
2021/08/26 17:32:08;;;;;;;2.65;0.60;;;;;;;13.95;75.44;99420.25;10462296;28;20048;-75
2021/08/26 17:37:14;;;;;;;1.77;0.70;;;;;;;13.91;75.57;99427.50;10443488;28;20045;-75
2021/08/26 17:42:15;;;;;;;2.20;0.65;;;;;;;13.86;76.99;99425.09;10461726;28;20045;-74
2021/08/26 17:47:17;;;;;;;3.20;0.80;;;;;;;13.93;75.63;99435.34;10460349;28;20045;-76
2021/08/26 17:52:19;;;;;;;2.50;0.77;;;;;;;13.88;75.77;99432.94;10460836;28;20049;-75
2021/08/26 17:57:20;;;;;;;1.30;0.70;;;;;;;13.88;75.60;99436.44;10462397;28;20045;-76
2021/08/26 18:02:22;;;;;;;1.80;0.70;;;;;;;13.73;76.42;99449.63;10461783;28;20490;-75
2021/08/26 18:07:23;;;;;;;2.95;0.80;;;;;;;13.74;76.84;99454.84;10461240;28;20060;-75
2021/08/26 18:12:25;;;;;;;2.03;0.85;;;;;;;13.81;76.16;99457.97;10468980;28;20048;-75
2021/08/26 18:17:27;;;;;;;2.10;0.80;;;;;;;13.69;77.63;99471.88;10467852;28;20069;-75
2021/08/26 18:22:28;;;;;;;2.05;0.70;;;;;;;13.60;77.93;99475.84;10470189;28;20045;-75
2021/08/26 18:27:30;;;;;;;2.53;0.75;;;;;;;13.44;77.92;99470.50;10469018;28;20063;-74
2021/08/26 18:32:32;;;;;;;3.80;0.98;;;;;;;13.38;77.77;99474.34;10469596;28;20406;-74
2021/08/26 18:37:34;;;;;;;2.53;1.00;;;;;;;13.20;78.75;99483.19;10467871;28;20463;-74
2021/08/26 18:42:36;;;;;;;1.20;0.80;;;;;;;13.26;79.29;99484.66;10451866;28;20429;-74
2021/08/26 18:47:38;;;;;;;1.88;0.93;;;;;;;13.22;79.27;99491.00;10450698;28;20045;-73
2021/08/26 18:52:40;;;;;;;1.30;0.98;;;;;;;13.16;80.02;99494.81;10468534;28;20049;-75
2021/08/26 18:57:41;;;;;;;2.83;1.25;;;;;;;13.18;80.05;99482.38;10457294;28;20105;-73
2021/08/26 19:02:44;;;;;;;2.85;1.80;;;;;;;13.12;80.38;99485.34;10432519;28;20049;-75
2021/08/26 19:07:46;;;;;;;4.47;1.27;;;;;;;13.05;80.87;99483.94;10468463;28;20134;-73
2021/08/26 19:12:48;;;;;;;2.55;1.38;;;;;;;12.94;81.50;99484.50;10451135;28;20383;-74
2021/08/26 19:17:51;;;;;;;2.83;1.15;;;;;;;12.96;81.05;99490.53;10425435;28;20048;-74
2021/08/26 19:23:13;;;;;;;3.30;1.10;;;;;;;12.85;82.24;99496.34;10426092;28;20046;-74
2021/08/26 19:28:15;;;;;;;2.75;1.13;;;;;;;12.94;81.32;99495.03;10466708;28;20041;-74
2021/08/26 19:33:16;;;;;;;2.58;1.40;;;;;;;13.01;81.14;99491.16;10465757;28;20041;-74
2021/08/26 19:38:18;;;;;;;2.63;1.30;;;;;;;12.85;81.70;99495.50;10464242;28;20072;-76
2021/08/26 19:43:20;;;;;;;2.95;1.10;;;;;;;12.89;81.08;99489.16;10466278;28;20040;-75
2021/08/26 19:48:22;;;;;;;1.80;0.90;;;;;;;12.63;82.21;99493.06;10465118;28;20041;-74
2021/08/26 19:53:23;;;;;;;3.10;1.02;;;;;;;12.86;80.80;99494.56;10447891;28;20057;-75
2021/08/26 19:58:25;;;;;;;2.85;0.80;;;;;;;12.84;81.06;99496.44;10448372;28;20049;-75
2021/08/26 20:03:27;;;;;;;2.15;0.82;;;;;;;12.86;80.94;99497.22;10446322;28;20056;-74
2021/08/26 20:08:28;;;;;;;2.70;1.00;;;;;;;12.97;80.49;99507.22;10462551;28;20040;-74
2021/08/26 20:13:30;;;;;;;2.65;0.90;;;;;;;12.85;81.63;99495.50;10462908;28;20041;-74
2021/08/26 20:18:32;;;;;;;2.45;0.73;;;;;;;12.72;82.99;99495.25;10462853;28;20528;-74
2021/08/26 20:23:33;;;;;;;2.65;0.90;;;;;;;13.10;79.60;99496.00;10445357;28;20049;-74
2021/08/26 20:28:35;;;;;;;4.20;0.90;;;;;;;13.07;79.31;99490.84;10463404;28;20521;-74
2021/08/26 20:33:36;;;;;;;1.52;0.70;;;;;;;12.94;80.17;99500.31;10464296;28;20107;-74
2021/08/26 20:38:38;;;;;;;2.15;0.80;;;;;;;13.09;79.12;99506.59;10462697;28;20040;-74
2021/08/26 20:43:40;;;;;;;3.80;0.90;;;;;;;13.00;79.02;99509.72;10428279;28;20139;-73
2021/08/26 20:48:41;;;;;;;2.15;0.80;;;;;;;12.99;78.15;99502.72;10462167;28;20037;-74
2021/08/26 20:53:44;;;;;;;1.95;0.77;;;;;;;12.84;80.35;99505.22;10461752;28;20044;-73
2021/08/26 20:58:46;;;;;;;2.60;0.60;;;;;;;12.92;78.97;99499.53;10462096;28;20147;-74
2021/08/26 21:03:48;;;;;;;1.98;0.60;;;;;;;12.82;79.84;99511.47;10444055;28;20049;-74
2021/08/26 21:08:49;;;;;;;1.92;0.73;;;;;;;12.91;78.66;99515.44;10443118;28;20041;-73
2021/08/26 21:13:52;;;;;;;1.40;0.75;;;;;;;12.75;80.45;99521.47;10460568;28;20044;-73
2021/08/26 21:18:53;;;;;;;2.70;0.82;;;;;;;12.73;80.44;99525.13;10443924;28;20049;-75
2021/08/26 21:24:01;;;;;;;3.05;0.70;;;;;;;12.70;80.58;99525.25;10461055;28;20048;-74
2021/08/26 21:29:03;;;;;;;2.13;0.80;;;;;;;12.83;79.88;99529.84;10460908;28;20037;-75
2021/08/26 21:34:05;;;;;;;4.70;1.10;;;;;;;12.74;80.43;99524.19;10460524;28;20055;-73
2021/08/26 21:39:06;;;;;;;4.45;1.50;;;;;;;12.82;79.79;99527.31;10460925;28;20521;-73
2021/08/26 21:44:08;;;;;;;1.95;0.95;;;;;;;12.88;79.71;99524.34;10463218;28;20052;-74
2021/08/26 21:49:09;;;;;;;3.80;1.05;;;;;;;12.74;80.52;99524.19;10468169;28;20037;-74
2021/08/26 21:54:11;;;;;;;3.65;1.35;;;;;;;12.65;80.53;99522.84;10450920;28;20080;-74
2021/08/26 21:59:12;;;;;;;3.22;1.30;;;;;;;12.54;81.38;99520.72;10451055;28;20049;-74
2021/08/26 22:04:14;;;;;;;3.22;1.30;;;;;;;12.48;81.95;99526.28;10451332;28;20422;-73
2021/08/26 22:09:18;;;;;;;2.97;1.40;;;;;;;12.58;81.63;99517.03;10470139;28;20433;-73
2021/08/26 22:14:20;;;;;;;2.85;1.30;;;;;;;12.70;80.99;99512.06;10468087;28;20056;-73
2021/08/26 22:19:22;;;;;;;2.88;1.20;;;;;;;12.70;80.72;99507.63;10451089;28;20083;-73
2021/08/26 22:24:24;;;;;;;2.28;1.40;;;;;;;12.64;81.71;99507.97;10450577;28;20578;-73
2021/08/26 22:29:26;;;;;;;4.20;1.80;;;;;;;12.76;80.53;99507.38;10450471;28;20111;-73
2021/08/26 22:34:29;;;;;;;3.83;1.42;;;;;;;12.63;81.40;99515.00;10467628;28;20075;-73
2021/08/26 22:39:30;;;;;;;2.50;1.33;;;;;;;12.76;81.06;99507.38;10449512;28;20089;-73
2021/08/26 22:44:32;;;;;;;3.38;1.48;;;;;;;12.71;81.11;99512.00;10466563;28;20048;-74
2021/08/26 22:49:33;;;;;;;3.20;1.48;;;;;;;12.70;81.21;99509.44;10448600;28;20489;-74
2021/08/26 22:54:35;;;;;;;3.72;1.52;;;;;;;12.74;80.85;99516.25;10449385;28;20139;-73
2021/08/26 22:59:37;;;;;;;3.35;1.50;;;;;;;12.78;80.62;99510.75;10449338;28;20041;-74
2021/08/26 23:04:39;;;;;;;4.15;1.30;;;;;;;12.75;81.01;99517.97;10466561;28;20056;-73
2021/08/26 23:09:41;;;;;;;2.85;1.20;;;;;;;12.74;81.31;99519.75;10449032;28;20063;-73
2021/08/26 23:14:42;;;;;;;1.88;1.27;;;;;;;12.91;80.70;99523.34;10466037;28;20045;-73
2021/08/26 23:19:44;;;;;;;5.35;1.60;;;;;;;12.72;82.56;99528.69;10460338;22;21390;-72
2021/08/26 23:24:45;;;;;;;2.50;1.50;;;;;;;12.90;82.34;99526.94;10460406;28;20098;-71
2021/08/26 23:29:46;;;;;;;3.55;1.80;;;;;;;12.79;83.45;99525.69;10441836;28;20049;-72
2021/08/26 23:34:48;;;;;;;2.28;1.60;;;;;;;12.69;84.55;99521.75;10459175;28;20095;-72